createdAt,value
2022-10-01T00:00:26.503Z,16.87
2022-10-01T00:03:18.611Z,17.61
2022-10-01T00:05:59.003Z,17.87
2022-10-01T00:08:31.487Z,18.18
2022-10-01T00:11:08.053Z,18.40
2022-10-01T00:13:39.618Z,18.51
2022-10-01T00:16:13.569Z,18.35
2022-10-01T00:18:47.062Z,17.34
2022-10-01T00:21:20.350Z,16.64
2022-10-01T00:23:56.595Z,17.20
2022-10-01T00:26:30.737Z,17.73
2022-10-01T00:29:04.777Z,17.88
2022-10-01T00:31:36.702Z,17.81
2022-10-01T00:34:08.452Z,17.86
2022-10-01T00:36:38.494Z,17.96
2022-10-01T00:39:10.438Z,17.88
2022-10-01T00:41:42.821Z,17.83
2022-10-01T00:44:36.016Z,17.74
2022-10-01T00:47:20.475Z,17.65
2022-10-01T00:49:59.338Z,17.66
2022-10-01T00:52:36.193Z,17.57
2022-10-01T00:55:12.894Z,17.50
2022-10-01T00:57:46.210Z,17.39
2022-10-01T01:00:17.765Z,17.27
2022-10-01T01:02:49.346Z,17.20
2022-10-01T01:05:19.805Z,17.22
2022-10-01T01:07:54.523Z,17.27
2022-10-01T01:10:31.308Z,17.32
2022-10-01T01:13:18.138Z,17.34
2022-10-01T01:15:59.347Z,17.32
2022-10-01T01:18:36.095Z,17.27
2022-10-01T01:21:17.672Z,17.23
2022-10-01T01:24:10.372Z,17.84
2022-10-01T01:26:54.113Z,18.70
2022-10-01T01:29:31.064Z,18.67
2022-10-01T01:32:13.979Z,17.40
2022-10-01T01:34:52.139Z,16.27
2022-10-01T01:37:27.557Z,15.94
2022-10-01T01:40:03.553Z,16.67
2022-10-01T01:42:37.951Z,16.89
2022-10-01T01:45:13.690Z,17.02
2022-10-01T01:47:46.697Z,17.15
2022-10-01T01:50:19.756Z,17.16
2022-10-01T01:52:51.582Z,17.12
2022-10-01T01:55:25.554Z,17.24
2022-10-01T01:57:58.829Z,17.62
2022-10-01T02:00:30.711Z,18.38
2022-10-01T02:03:02.819Z,18.50
2022-10-01T02:05:43.902Z,17.34
2022-10-01T02:08:31.134Z,16.16
2022-10-01T02:11:12.666Z,15.81
2022-10-01T02:14:00.133Z,17.03
2022-10-01T02:16:36.198Z,17.90
2022-10-01T02:19:19.448Z,18.00
2022-10-01T02:22:00.866Z,16.79
2022-10-01T02:24:42.505Z,15.99
2022-10-01T02:27:14.815Z,16.72
2022-10-01T02:29:49.829Z,16.86
2022-10-01T02:32:22.978Z,16.85
2022-10-01T02:34:55.867Z,16.63
2022-10-01T02:37:37.209Z,16.47
2022-10-01T02:40:15.886Z,16.42
2022-10-01T02:42:51.012Z,16.38
2022-10-01T02:45:25.795Z,16.28
2022-10-01T02:48:02.657Z,16.21
2022-10-01T02:50:39.907Z,16.10
2022-10-01T02:53:18.306Z,15.93
2022-10-01T02:55:51.682Z,15.80
2022-10-01T02:58:23.513Z,15.69
2022-10-01T03:00:55.001Z,15.57
2022-10-01T03:03:27.410Z,15.52
2022-10-01T03:05:58.880Z,15.47
2022-10-01T03:08:31.726Z,15.44
2022-10-01T03:11:03.202Z,15.43
2022-10-01T03:13:34.427Z,15.48
2022-10-01T03:16:06.084Z,15.53
2022-10-01T03:18:37.599Z,15.50
2022-10-01T03:21:07.607Z,15.43
2022-10-01T03:23:39.120Z,15.44
2022-10-01T03:26:09.099Z,15.58
2022-10-01T03:28:40.572Z,15.64
2022-10-01T03:31:11.301Z,15.73
2022-10-01T03:33:43.067Z,15.75
2022-10-01T03:36:14.618Z,15.78
2022-10-01T03:38:44.620Z,15.78
2022-10-01T03:41:16.118Z,15.70
2022-10-01T03:43:46.105Z,15.65
2022-10-01T03:46:18.082Z,15.59
2022-10-01T03:48:50.630Z,15.58
2022-10-01T03:51:22.110Z,15.57
2022-10-01T03:53:52.099Z,15.60
2022-10-01T03:56:23.980Z,15.60
2022-10-01T03:58:55.808Z,15.63
2022-10-01T04:01:28.141Z,15.64
2022-10-01T04:04:00.089Z,15.67
2022-10-01T04:06:31.636Z,15.72
2022-10-01T04:09:01.712Z,15.83
2022-10-01T04:11:33.397Z,15.79
2022-10-01T04:14:05.219Z,15.69
2022-10-01T04:16:37.052Z,15.49
2022-10-01T04:19:08.554Z,15.43
2022-10-01T04:21:40.200Z,15.34
2022-10-01T04:24:12.045Z,15.36
2022-10-01T04:26:41.977Z,15.39
2022-10-01T04:29:13.459Z,15.38
2022-10-01T04:31:43.530Z,15.43
2022-10-01T04:34:14.985Z,15.47
2022-10-01T04:36:46.760Z,15.56
2022-10-01T04:39:18.468Z,15.55
2022-10-01T04:41:49.966Z,15.53
2022-10-01T04:44:21.384Z,15.52
2022-10-01T04:46:52.845Z,15.53
2022-10-01T04:49:22.838Z,15.55
2022-10-01T04:51:54.244Z,15.57
2022-10-01T04:54:25.730Z,15.61
2022-10-01T04:56:58.301Z,15.63
2022-10-01T04:59:31.801Z,15.65
2022-10-01T05:02:03.629Z,15.63
2022-10-01T05:04:35.074Z,15.59
2022-10-01T05:07:07.010Z,15.56
2022-10-01T05:09:38.444Z,15.58
2022-10-01T05:12:09.920Z,15.60
2022-10-01T05:14:39.881Z,15.62
2022-10-01T05:17:11.294Z,15.58
2022-10-01T05:19:42.750Z,15.60
2022-10-01T05:22:14.457Z,15.59
2022-10-01T05:24:45.886Z,15.57
2022-10-01T05:27:17.325Z,15.52
2022-10-01T05:29:49.015Z,15.44
2022-10-01T05:32:20.687Z,15.45
2022-10-01T05:34:53.728Z,15.47
2022-10-01T05:37:25.361Z,15.48
2022-10-01T05:39:55.337Z,15.48
2022-10-01T05:42:26.872Z,15.47
2022-10-01T05:44:56.864Z,15.55
2022-10-01T05:47:28.336Z,15.59
2022-10-01T05:49:59.979Z,15.66
2022-10-01T05:52:31.386Z,15.68
2022-10-01T05:55:02.836Z,15.68
2022-10-01T05:57:33.218Z,15.68
2022-10-01T06:00:05.639Z,15.65
2022-10-01T06:02:43.632Z,15.65
2022-10-01T06:05:15.309Z,15.58
2022-10-01T06:07:47.102Z,15.54
2022-10-01T06:10:18.954Z,15.49
2022-10-01T06:12:50.512Z,15.42
2022-10-01T06:15:20.465Z,15.37
2022-10-01T06:17:51.863Z,15.24
2022-10-01T06:20:24.137Z,15.06
2022-10-01T06:22:59.831Z,14.97
2022-10-01T06:25:31.635Z,14.90
2022-10-01T06:28:05.837Z,14.87
2022-10-01T06:30:39.409Z,14.68
2022-10-01T06:33:12.620Z,14.60
2022-10-01T06:35:45.764Z,14.49
2022-10-01T06:38:19.812Z,14.51
2022-10-01T06:40:55.861Z,14.51
2022-10-01T06:43:30.057Z,14.61
2022-10-01T06:46:03.909Z,14.77
2022-10-01T06:48:36.513Z,14.92
2022-10-01T06:51:08.678Z,15.08
2022-10-01T06:53:40.202Z,15.24
2022-10-01T06:56:10.336Z,15.38
2022-10-01T06:58:42.540Z,15.47
2022-10-01T07:01:14.227Z,15.46
2022-10-01T07:03:45.790Z,15.51
2022-10-01T07:06:17.253Z,15.56
2022-10-01T07:08:49.318Z,15.60
2022-10-01T07:11:21.209Z,15.62
2022-10-01T07:13:54.902Z,15.69
2022-10-01T07:16:26.607Z,15.76
2022-10-01T07:18:56.657Z,15.85
2022-10-01T07:21:28.179Z,15.91
2022-10-01T07:24:00.040Z,15.98
2022-10-01T07:26:30.063Z,16.01
2022-10-01T07:29:01.704Z,15.97
2022-10-01T07:31:33.678Z,15.89
2022-10-01T07:34:05.377Z,15.83
2022-10-01T07:36:36.821Z,15.79
2022-10-01T07:39:06.788Z,15.68
2022-10-01T07:41:38.293Z,15.69
2022-10-01T07:44:08.371Z,15.74
2022-10-01T07:46:40.714Z,15.76
2022-10-01T07:49:12.866Z,15.88
2022-10-01T07:51:44.482Z,15.99
2022-10-01T07:54:16.192Z,16.07
2022-10-01T07:56:48.232Z,16.16
2022-10-01T07:59:19.817Z,16.25
2022-10-01T08:01:51.791Z,16.30
2022-10-01T08:04:41.387Z,16.39
2022-10-01T08:07:12.866Z,16.53
2022-10-01T08:09:43.001Z,16.62
2022-10-01T08:12:14.452Z,16.69
2022-10-01T08:14:44.437Z,16.78
2022-10-01T08:17:15.913Z,16.84
2022-10-01T08:19:47.474Z,16.98
2022-10-01T08:22:17.566Z,17.07
2022-10-01T08:24:48.974Z,17.05
2022-10-01T08:27:19.071Z,17.10
2022-10-01T08:29:50.638Z,17.11
2022-10-01T08:32:23.266Z,17.14
2022-10-01T08:34:57.596Z,17.10
2022-10-01T08:37:30.275Z,17.04
2022-10-01T08:40:01.952Z,16.95
2022-10-01T08:42:52.161Z,16.92
2022-10-01T08:45:27.123Z,16.93
2022-10-01T08:48:06.330Z,16.96
2022-10-01T08:50:47.800Z,16.99
2022-10-01T08:53:29.220Z,17.02
2022-10-01T08:56:02.710Z,17.07
2022-10-01T08:58:42.086Z,17.08
2022-10-01T09:01:14.141Z,17.11
2022-10-01T09:03:45.721Z,17.16
2022-10-01T09:06:19.534Z,17.14
2022-10-01T09:09:10.025Z,17.14
2022-10-01T09:11:59.531Z,17.25
2022-10-01T09:14:51.133Z,17.38
2022-10-01T09:17:32.665Z,17.49
2022-10-01T09:20:08.633Z,17.52
2022-10-01T09:22:45.437Z,17.52
2022-10-01T09:25:23.080Z,17.61
2022-10-01T09:28:01.893Z,17.70
2022-10-01T09:30:36.636Z,17.79
2022-10-01T09:33:16.587Z,17.85
2022-10-01T09:35:54.656Z,17.85
2022-10-01T09:38:34.919Z,17.88
2022-10-01T09:41:06.539Z,17.88
2022-10-01T09:43:41.290Z,17.83
2022-10-01T09:46:17.522Z,17.77
2022-10-01T09:48:57.463Z,17.77
2022-10-01T09:51:39.421Z,17.79
2022-10-01T09:54:17.457Z,17.73
2022-10-01T09:56:54.902Z,17.77
2022-10-01T09:59:31.310Z,17.85
2022-10-01T10:02:05.980Z,17.90
2022-10-01T10:04:37.599Z,17.94
2022-10-01T10:07:09.216Z,18.03
2022-10-01T10:09:41.446Z,18.16
2022-10-01T10:12:29.332Z,18.26
2022-10-01T10:15:09.971Z,18.33
2022-10-01T10:17:44.233Z,18.38
2022-10-01T10:20:25.944Z,18.47
2022-10-01T10:23:08.343Z,18.54
2022-10-01T10:25:39.964Z,18.62
2022-10-01T10:28:19.729Z,18.71
2022-10-01T10:30:53.713Z,18.88
2022-10-01T10:33:27.094Z,19.00
2022-10-01T10:36:05.494Z,19.05
2022-10-01T10:38:37.454Z,19.11
2022-10-01T10:41:19.587Z,19.21
2022-10-01T10:43:51.339Z,19.33
2022-10-01T10:46:31.442Z,19.42
2022-10-01T10:49:09.295Z,19.45
2022-10-01T10:51:53.542Z,19.50
2022-10-01T10:54:29.382Z,19.52
2022-10-01T10:57:03.221Z,19.54
2022-10-01T10:59:35.775Z,19.49
2022-10-01T11:02:16.677Z,19.49
2022-10-01T11:04:49.273Z,19.56
2022-10-01T11:07:25.250Z,19.63
2022-10-01T11:10:10.232Z,19.71
2022-10-01T11:12:56.934Z,19.78
2022-10-01T11:15:48.174Z,19.79
2022-10-01T11:18:43.928Z,19.65
2022-10-01T11:21:29.239Z,19.65
2022-10-01T11:24:14.333Z,19.69
2022-10-01T11:26:55.349Z,19.72
2022-10-01T11:29:38.737Z,19.67
2022-10-01T11:32:19.861Z,19.65
2022-10-01T11:35:03.721Z,19.67
2022-10-01T11:37:47.615Z,19.80
2022-10-01T11:40:25.494Z,19.91
2022-10-01T11:43:04.421Z,20.00
2022-10-01T11:45:42.758Z,20.04
2022-10-01T11:48:24.114Z,20.05
2022-10-01T11:51:01.239Z,20.08
2022-10-01T11:53:38.769Z,20.10
2022-10-01T11:56:37.321Z,20.06
2022-10-01T11:59:17.632Z,19.79
2022-10-01T12:01:54.698Z,19.64
2022-10-01T12:04:34.118Z,19.64
2022-10-01T12:07:13.110Z,19.49
2022-10-01T12:09:58.082Z,19.50
2022-10-01T12:12:35.205Z,19.55
2022-10-01T12:15:16.425Z,19.57
2022-10-01T12:17:53.833Z,19.53
2022-10-01T12:20:32.388Z,19.44
2022-10-01T12:23:09.140Z,19.54
2022-10-01T12:25:49.177Z,19.79
2022-10-01T12:28:24.532Z,19.95
2022-10-01T12:31:04.063Z,20.04
2022-10-01T12:34:01.914Z,20.05
2022-10-01T12:36:45.156Z,19.96
2022-10-01T12:39:34.555Z,19.80
2022-10-01T12:42:19.689Z,19.70
2022-10-01T12:45:06.213Z,19.63
2022-10-01T12:47:45.840Z,19.63
2022-10-01T12:50:27.877Z,20.25
2022-10-01T12:53:17.827Z,20.23
2022-10-01T12:56:01.368Z,20.88
2022-10-01T12:59:03.920Z,20.94
2022-10-01T13:01:55.806Z,19.77
2022-10-01T13:04:56.631Z,18.89
2022-10-01T13:07:37.453Z,18.71
2022-10-01T13:10:23.142Z,19.78
2022-10-01T13:13:02.978Z,20.37
2022-10-01T13:15:37.893Z,20.36
2022-10-01T13:18:20.701Z,19.54
2022-10-01T13:21:01.858Z,18.75
2022-10-01T13:23:41.563Z,18.98
2022-10-01T13:26:17.453Z,19.46
2022-10-01T13:29:01.573Z,19.87
2022-10-01T13:31:39.573Z,20.05
2022-10-01T13:34:39.073Z,20.12
2022-10-01T13:37:16.529Z,19.99
2022-10-01T13:39:48.620Z,19.06
2022-10-01T13:42:26.078Z,18.45
2022-10-01T13:45:00.520Z,18.70
2022-10-01T13:47:33.061Z,19.21
2022-10-01T13:50:08.169Z,19.47
2022-10-01T13:52:39.914Z,19.72
2022-10-01T13:55:28.674Z,19.84
2022-10-01T13:58:08.218Z,19.84
2022-10-01T14:00:50.297Z,19.80
2022-10-01T14:03:39.897Z,19.67
2022-10-01T14:06:19.348Z,19.97
2022-10-01T14:08:55.145Z,19.80
2022-10-01T14:11:47.866Z,19.55
2022-10-01T14:14:46.829Z,19.37
2022-10-01T14:17:22.818Z,19.20
2022-10-01T14:19:54.737Z,19.25
2022-10-01T14:22:36.503Z,19.54
2022-10-01T14:25:20.938Z,19.70
2022-10-01T14:28:08.319Z,19.95
2022-10-01T14:30:46.872Z,20.11
2022-10-01T14:33:37.114Z,19.84
2022-10-01T14:36:16.546Z,18.78
2022-10-01T14:38:48.330Z,18.20
2022-10-01T14:41:26.939Z,18.71
2022-10-01T14:43:58.384Z,19.10
2022-10-01T14:46:28.430Z,19.31
2022-10-01T14:49:00.849Z,19.42
2022-10-01T14:51:33.076Z,19.79
2022-10-01T14:54:04.598Z,20.41
2022-10-01T14:56:37.938Z,20.48
2022-10-01T14:59:17.175Z,19.48
2022-10-01T15:02:00.213Z,18.46
2022-10-01T15:04:31.760Z,18.22
2022-10-01T15:07:17.160Z,19.33
2022-10-01T15:09:49.918Z,20.03
2022-10-01T15:12:24.223Z,20.16
2022-10-01T15:14:56.899Z,20.02
2022-10-01T15:17:29.648Z,19.09
2022-10-01T15:20:01.293Z,18.18
2022-10-01T15:22:34.001Z,17.87
2022-10-01T15:25:06.462Z,18.96
2022-10-01T15:27:41.739Z,19.40
2022-10-01T15:30:19.160Z,19.46
2022-10-01T15:32:51.496Z,19.54
2022-10-01T15:35:24.611Z,19.70
2022-10-01T15:38:00.529Z,19.86
2022-10-01T15:40:35.279Z,20.01
2022-10-01T15:43:23.519Z,19.82
2022-10-01T15:46:28.896Z,18.76
2022-10-01T15:49:18.887Z,18.25
2022-10-01T15:52:15.390Z,19.51
2022-10-01T15:54:48.474Z,20.38
2022-10-01T15:57:22.732Z,20.44
2022-10-01T15:59:57.789Z,19.29
2022-10-01T16:02:32.899Z,18.14
2022-10-01T16:05:08.985Z,17.75
2022-10-01T16:07:40.521Z,18.85
2022-10-01T16:10:32.316Z,19.86
2022-10-01T16:13:36.311Z,20.66
2022-10-01T16:16:18.597Z,20.28
2022-10-01T16:18:56.254Z,18.86
2022-10-01T16:21:28.287Z,17.83
2022-10-01T16:23:59.839Z,17.55
2022-10-01T16:26:37.797Z,18.71
2022-10-01T16:29:25.139Z,19.70
2022-10-01T16:31:58.235Z,20.22
2022-10-01T16:34:29.705Z,19.98
2022-10-01T16:36:59.772Z,18.77
2022-10-01T16:39:31.469Z,17.68
2022-10-01T16:42:22.676Z,17.57
2022-10-01T16:44:53.232Z,18.78
2022-10-01T16:47:24.658Z,19.58
2022-10-01T16:49:54.663Z,20.18
2022-10-01T16:52:26.544Z,20.55
2022-10-01T16:54:58.061Z,20.03
2022-10-01T16:57:29.539Z,18.73
2022-10-01T16:59:59.572Z,18.02
2022-10-01T17:02:31.074Z,18.77
2022-10-01T17:05:02.581Z,19.45
2022-10-01T17:07:33.446Z,19.66
2022-10-01T17:10:06.383Z,19.41
2022-10-01T17:12:37.848Z,18.38
2022-10-01T17:15:13.062Z,17.66
2022-10-01T17:17:44.851Z,18.41
2022-10-01T17:20:16.459Z,19.37
2022-10-01T17:22:48.551Z,19.98
2022-10-01T17:25:21.836Z,19.95
2022-10-01T17:27:53.342Z,18.73
2022-10-01T17:30:25.111Z,17.64
2022-10-01T17:32:56.877Z,17.33
2022-10-01T17:35:29.543Z,18.47
2022-10-01T17:38:01.204Z,19.44
2022-10-01T17:40:32.678Z,19.95
2022-10-01T17:43:02.661Z,19.92
2022-10-01T17:45:34.167Z,18.72
2022-10-01T17:48:05.983Z,17.58
2022-10-01T17:50:43.671Z,17.23
2022-10-01T17:53:15.642Z,18.42
2022-10-01T17:55:47.258Z,19.40
2022-10-01T17:58:19.735Z,19.57
2022-10-01T18:00:51.420Z,18.46
2022-10-01T18:03:23.444Z,17.40
2022-10-01T18:06:03.588Z,17.07
2022-10-01T18:08:54.281Z,18.33
2022-10-01T18:11:28.834Z,19.41
2022-10-01T18:14:00.521Z,19.57
2022-10-01T18:16:32.123Z,18.42
2022-10-01T18:21:56.938Z,17.05
2022-10-01T18:24:28.929Z,18.24
2022-10-01T18:27:00.409Z,19.20
2022-10-01T18:29:31.897Z,19.44
2022-10-01T18:32:02.789Z,18.31
2022-10-01T18:34:40.745Z,17.17
2022-10-01T18:37:23.359Z,16.72
2022-10-01T18:40:01.123Z,17.64
2022-10-01T18:42:42.515Z,17.85
2022-10-01T18:45:19.467Z,16.65
2022-10-01T18:48:03.833Z,15.91
2022-10-01T18:50:44.548Z,16.79
2022-10-01T18:53:29.174Z,17.57
2022-10-01T18:56:29.190Z,17.66
2022-10-01T18:59:15.701Z,16.27
2022-10-01T19:01:54.796Z,15.13
2022-10-01T19:04:51.777Z,14.88
2022-10-01T19:07:40.866Z,16.51
2022-10-01T19:10:23.980Z,17.52
2022-10-01T19:13:06.548Z,17.66
2022-10-01T19:15:50.801Z,16.44
2022-10-01T19:18:38.507Z,15.33
2022-10-01T19:21:20.720Z,15.12
2022-10-01T19:24:20.635Z,16.56
2022-10-01T19:27:01.504Z,17.56
2022-10-01T19:29:46.697Z,17.63
2022-10-01T19:32:22.487Z,16.34
2022-10-01T19:34:59.053Z,15.22
2022-10-01T19:37:37.649Z,14.84
2022-10-01T19:40:20.470Z,16.13
2022-10-01T19:43:00.105Z,17.14
2022-10-01T19:45:44.236Z,17.30
2022-10-01T19:48:22.383Z,16.10
2022-10-01T19:50:59.346Z,15.48
2022-10-01T19:53:37.182Z,16.63
2022-10-01T19:56:14.744Z,17.75
2022-10-01T19:58:47.517Z,17.84
2022-10-01T20:01:22.345Z,16.63
2022-10-01T20:04:00.184Z,15.52
2022-10-01T20:06:34.757Z,15.21
2022-10-01T20:09:16.838Z,16.50
2022-10-01T20:11:54.779Z,17.56
2022-10-01T20:14:59.650Z,17.68
2022-10-01T20:17:40.417Z,16.29
2022-10-01T20:20:18.785Z,15.18
2022-10-01T20:23:03.340Z,14.86
2022-10-01T20:25:45.937Z,16.19
2022-10-01T20:28:24.923Z,17.22
2022-10-01T20:31:08.939Z,17.41
2022-10-01T20:33:51.842Z,16.17
2022-10-01T20:36:34.041Z,15.06
2022-10-01T20:39:13.170Z,14.81
2022-10-01T20:41:47.847Z,16.09
2022-10-01T20:44:23.479Z,17.04
2022-10-01T20:47:03.139Z,17.51
2022-10-01T20:49:39.279Z,17.43
2022-10-01T20:52:18.939Z,16.23
2022-10-01T20:54:57.498Z,15.07
2022-10-01T20:57:34.454Z,14.63
2022-10-01T21:00:08.970Z,15.50
2022-10-01T21:02:45.003Z,16.16
2022-10-01T21:05:23.394Z,16.47
2022-10-01T21:08:00.499Z,16.64
2022-10-01T21:10:38.773Z,16.77
2022-10-01T21:13:16.892Z,16.92
2022-10-01T21:15:58.559Z,17.00
2022-10-01T21:18:36.322Z,17.00
2022-10-01T21:21:20.124Z,17.26
2022-10-01T21:24:05.942Z,17.43
2022-10-01T21:26:49.732Z,17.20
2022-10-01T21:29:39.934Z,15.93
2022-10-01T21:32:23.403Z,15.15
2022-10-01T21:35:02.427Z,15.90
2022-10-01T21:37:38.753Z,16.96
2022-10-01T21:40:24.925Z,17.70
2022-10-01T21:43:06.951Z,17.69
2022-10-01T21:45:48.611Z,16.29
2022-10-01T21:48:25.605Z,15.12
2022-10-01T21:51:03.576Z,15.57
2022-10-01T21:54:03.500Z,16.51
2022-10-01T21:56:54.976Z,16.98
2022-10-01T21:59:47.558Z,17.20
2022-10-01T22:02:31.112Z,17.42
2022-10-01T22:05:12.266Z,17.31
2022-10-01T22:07:52.047Z,16.05
2022-10-01T22:10:28.445Z,15.27
2022-10-01T22:13:04.204Z,15.77
2022-10-01T22:15:40.497Z,16.28
2022-10-01T22:18:19.474Z,16.64
2022-10-01T22:20:52.599Z,16.88
2022-10-01T22:23:25.613Z,16.95
2022-10-01T22:26:02.125Z,16.81
2022-10-01T22:28:39.854Z,16.94
2022-10-01T22:31:16.790Z,17.13
2022-10-01T22:33:54.211Z,17.17
2022-10-01T22:36:32.648Z,16.78
2022-10-01T22:39:08.566Z,15.62
2022-10-01T22:41:45.879Z,14.95
2022-10-01T22:44:19.925Z,15.45
2022-10-01T22:47:21.538Z,16.04
2022-10-01T22:50:11.947Z,16.44
2022-10-01T22:52:52.685Z,16.66
2022-10-01T22:55:31.902Z,16.72
2022-10-01T22:58:14.432Z,16.79
2022-10-01T23:00:52.351Z,16.85
2022-10-01T23:03:35.361Z,16.89
2022-10-01T23:06:12.328Z,16.86
2022-10-01T23:08:50.047Z,16.91
2022-10-01T23:11:28.004Z,16.92
2022-10-01T23:14:09.106Z,17.25
2022-10-01T23:16:51.503Z,17.45
2022-10-01T23:19:36.570Z,16.20
2022-10-01T23:22:15.613Z,15.47
2022-10-01T23:25:04.582Z,16.26
2022-10-01T23:27:48.286Z,16.89
2022-10-01T23:30:21.614Z,17.46
2022-10-01T23:33:20.853Z,17.45
2022-10-01T23:36:05.126Z,15.95
2022-10-01T23:38:53.402Z,15.19
2022-10-01T23:41:31.941Z,15.87
2022-10-01T23:44:10.013Z,16.47
2022-10-01T23:46:43.859Z,16.74
2022-10-01T23:49:18.390Z,16.87
2022-10-01T23:51:56.554Z,16.98
2022-10-01T23:54:34.103Z,17.32
2022-10-01T23:57:11.071Z,17.21
2022-10-01T23:59:45.757Z,15.87
